createdAt,value
2022-08-12T00:00:08.003Z,97259.88
2022-08-12T00:02:54.338Z,97266.81
2022-08-12T00:06:01.879Z,97265.59
2022-08-12T00:08:48.594Z,97262.34
2022-08-12T00:11:33.967Z,97260.50
2022-08-12T00:14:19.080Z,97260.72
2022-08-12T00:17:04.515Z,97261.72
2022-08-12T00:19:49.649Z,97257.84
2022-08-12T00:22:35.197Z,97254.38
2022-08-12T00:25:21.084Z,97258.28
2022-08-12T00:28:26.958Z,97250.50
2022-08-12T00:31:12.908Z,97255.75
2022-08-12T00:33:58.086Z,97253.09
2022-08-12T00:36:46.392Z,97253.09
2022-08-12T00:39:35.673Z,97266.78
2022-08-12T00:42:11.894Z,97257.19
2022-08-12T00:44:44.727Z,97260.47
2022-08-12T00:47:24.922Z,97264.94
2022-08-12T00:49:54.620Z,97262.69
2022-08-12T00:52:22.624Z,97262.03
2022-08-12T00:54:57.099Z,97253.91
2022-08-12T00:57:30.790Z,97253.50
2022-08-12T01:00:03.879Z,97249.63
2022-08-12T01:02:38.755Z,97245.53
2022-08-12T01:05:29.147Z,97250.41
2022-08-12T01:08:15.488Z,97251.44
2022-08-12T01:11:03.076Z,97251.44
2022-08-12T01:13:32.208Z,97245.31
2022-08-12T01:16:02.909Z,97253.66
2022-08-12T01:18:33.972Z,97246.72
2022-08-12T01:21:12.882Z,97247.88
2022-08-12T01:23:53.267Z,97247.88
2022-08-12T01:26:23.583Z,97245.06
2022-08-12T01:29:00.757Z,97244.81
2022-08-12T01:31:31.957Z,97236.25
2022-08-12T01:34:28.384Z,97238.09
2022-08-12T01:36:59.740Z,97235.19
2022-08-12T01:39:31.063Z,97236.78
2022-08-12T01:42:03.611Z,97249.25
2022-08-12T01:44:32.709Z,97241.09
2022-08-12T01:47:05.970Z,97237.06
2022-08-12T01:49:53.711Z,97235.63
2022-08-12T01:52:34.850Z,97239.66
2022-08-12T01:55:02.607Z,97229.47
2022-08-12T01:57:59.169Z,97233.75
2022-08-12T02:00:55.538Z,97229.16
2022-08-12T02:04:07.128Z,97229.47
2022-08-12T02:06:59.566Z,97229.50
2022-08-12T02:09:58.831Z,97217.66
2022-08-12T02:12:44.114Z,97226.22
2022-08-12T02:15:27.471Z,97235.16
2022-08-12T02:17:57.762Z,97218.06
2022-08-12T02:20:51.369Z,97223.31
2022-08-12T02:23:23.330Z,97221.59
2022-08-12T02:25:55.266Z,97217.38
2022-08-12T02:28:21.852Z,97212.72
2022-08-12T02:30:48.651Z,97210.69
2022-08-12T02:33:18.139Z,97213.88
2022-08-12T02:35:45.200Z,97206.09
2022-08-12T02:38:12.762Z,97207.69
2022-08-12T02:40:45.477Z,97201.75
2022-08-12T02:43:17.271Z,97204.31
2022-08-12T02:45:45.494Z,97200.81
2022-08-12T02:48:18.868Z,97200.38
2022-08-12T02:50:50.390Z,97195.94
2022-08-12T02:53:17.612Z,97191.81
2022-08-12T02:55:45.784Z,97193.00
2022-08-12T02:58:14.502Z,97189.41
2022-08-12T03:00:42.835Z,97190.72
2022-08-12T03:03:12.925Z,97185.63
2022-08-12T03:05:58.175Z,97187.03
2022-08-12T03:08:32.645Z,97185.16
2022-08-12T03:11:15.832Z,97189.19
2022-08-12T03:13:47.189Z,97192.28
2022-08-12T03:16:14.938Z,97193.09
2022-08-12T03:18:45.770Z,97191.41
2022-08-12T03:21:16.957Z,97185.19
2022-08-12T03:23:45.893Z,97193.13
2022-08-12T03:26:14.834Z,97196.97
2022-08-12T03:28:51.718Z,97196.19
2022-08-12T03:31:21.814Z,97188.13
2022-08-12T03:34:02.124Z,97188.50
2022-08-12T03:36:33.608Z,97193.06
2022-08-12T03:39:18.554Z,97194.00
2022-08-12T03:42:24.536Z,97197.47
2022-08-12T03:45:52.144Z,97198.56
2022-08-12T03:48:39.193Z,97192.72
2022-08-12T03:51:24.730Z,97202.97
2022-08-12T03:54:11.527Z,97200.34
2022-08-12T03:56:58.201Z,97204.19
2022-08-12T03:59:43.270Z,97203.19
2022-08-12T04:02:14.890Z,97202.56
2022-08-12T04:04:45.447Z,97207.81
2022-08-12T04:07:13.822Z,97208.13
2022-08-12T04:09:43.658Z,97206.81
2022-08-12T04:12:32.281Z,97210.09
2022-08-12T04:15:00.484Z,97206.03
2022-08-12T04:17:28.344Z,97212.03
2022-08-12T04:19:59.073Z,97215.22
2022-08-12T04:22:29.879Z,97215.25
2022-08-12T04:25:03.332Z,97224.97
2022-08-12T04:27:31.841Z,97219.44
2022-08-12T04:30:31.371Z,97215.88
2022-08-12T04:32:46.267Z,97222.28
2022-08-12T04:35:13.096Z,97218.53
2022-08-12T04:37:59.779Z,97221.91
2022-08-12T04:40:28.948Z,97221.66
2022-08-12T04:42:56.070Z,97221.25
2022-08-12T04:45:22.914Z,97223.88
2022-08-12T04:47:49.596Z,97217.91
2022-08-12T04:50:35.058Z,97224.31
2022-08-12T04:53:06.532Z,97214.53
2022-08-12T04:55:33.617Z,97223.31
2022-08-12T04:58:00.369Z,97219.66
2022-08-12T05:00:27.753Z,97212.47
2022-08-12T05:02:54.456Z,97218.94
2022-08-12T05:05:23.262Z,97226.50
2022-08-12T05:07:54.479Z,97232.75
2022-08-12T05:10:33.798Z,97226.59
2022-08-12T05:13:09.391Z,97230.25
2022-08-12T05:16:05.021Z,97229.25
2022-08-12T05:18:29.379Z,97226.34
2022-08-12T05:20:56.732Z,97232.00
2022-08-12T05:23:23.451Z,97228.28
2022-08-12T05:25:51.994Z,97224.47
2022-08-12T05:28:18.577Z,97224.72
2022-08-12T05:30:46.152Z,97230.97
2022-08-12T05:33:15.690Z,97229.50
2022-08-12T05:35:44.706Z,97215.91
2022-08-12T05:38:32.268Z,97227.88
2022-08-12T05:41:00.011Z,97217.00
2022-08-12T05:43:27.149Z,97217.97
2022-08-12T05:45:54.819Z,97223.31
2022-08-12T05:48:21.898Z,97224.34
2022-08-12T05:50:48.939Z,97228.88
2022-08-12T05:53:15.924Z,97237.44
2022-08-12T05:55:42.675Z,97241.72
2022-08-12T05:58:09.289Z,97239.47
2022-08-12T06:00:37.240Z,97243.88
2022-08-12T06:03:06.167Z,97244.88
2022-08-12T06:05:52.554Z,97239.22
2022-08-12T06:08:21.596Z,97235.13
2022-08-12T06:10:50.284Z,97236.44
2022-08-12T06:13:25.668Z,97238.09
2022-08-12T06:15:56.341Z,97244.63
2022-08-12T06:18:29.209Z,97236.63
2022-08-12T06:21:02.019Z,97237.69
2022-08-12T06:23:30.164Z,97227.75
2022-08-12T06:25:57.700Z,97240.22
2022-08-12T06:28:24.621Z,97239.16
2022-08-12T06:31:22.073Z,97238.91
2022-08-12T06:33:59.640Z,97234.66
2022-08-12T06:36:29.871Z,97236.50
2022-08-12T06:38:59.396Z,97238.47
2022-08-12T06:42:05.045Z,97242.97
2022-08-12T06:44:32.742Z,97236.00
2022-08-12T06:46:59.647Z,97227.25
2022-08-12T06:49:28.500Z,97236.63
2022-08-12T06:51:56.852Z,97226.50
2022-08-12T06:54:31.109Z,97232.34
2022-08-12T06:57:05.406Z,97222.97
2022-08-12T06:59:46.687Z,97221.16
2022-08-12T07:02:13.818Z,97226.81
2022-08-12T07:04:40.601Z,97220.50
2022-08-12T07:07:10.828Z,97218.22
2022-08-12T07:10:03.763Z,97214.13
2022-08-12T07:12:28.336Z,97213.66
2022-08-12T07:14:58.790Z,97202.16
2022-08-12T07:17:26.641Z,97218.81
2022-08-12T07:19:53.802Z,97218.47
2022-08-12T07:22:23.353Z,97220.63
2022-08-12T07:25:10.038Z,97222.13
2022-08-12T07:27:42.767Z,97212.31
2022-08-12T07:30:10.249Z,97203.41
2022-08-12T07:32:40.447Z,97215.81
2022-08-12T07:35:07.529Z,97210.53
2022-08-12T07:37:40.637Z,97203.59
2022-08-12T07:40:11.806Z,97207.34
2022-08-12T07:42:40.731Z,97210.03
2022-08-12T07:45:09.497Z,97202.25
2022-08-12T07:47:36.668Z,97194.97
2022-08-12T07:50:09.240Z,97209.00
2022-08-12T07:52:38.441Z,97204.19
2022-08-12T07:55:05.848Z,97202.81
2022-08-12T07:57:35.555Z,97191.50
2022-08-12T08:00:05.251Z,97195.53
2022-08-12T08:02:35.889Z,97201.94
2022-08-12T08:05:04.211Z,97198.97
2022-08-12T08:07:31.185Z,97195.28
2022-08-12T08:10:00.671Z,97186.34
2022-08-12T08:12:47.462Z,97188.84
2022-08-12T08:15:15.780Z,97179.94
2022-08-12T08:17:59.784Z,97183.88
2022-08-12T08:20:30.808Z,97178.97
2022-08-12T08:22:59.148Z,97178.06
2022-08-12T08:25:37.302Z,97172.34
2022-08-12T08:28:08.833Z,97179.66
2022-08-12T08:30:38.368Z,97181.88
2022-08-12T08:33:22.809Z,97179.91
2022-08-12T08:35:49.970Z,97188.00
2022-08-12T08:38:32.374Z,97192.88
2022-08-12T08:42:17.088Z,97183.44
2022-08-12T08:44:10.871Z,97193.34
2022-08-12T08:46:38.395Z,97182.03
2022-08-12T08:49:06.207Z,97189.34
2022-08-12T08:51:33.157Z,97182.34
2022-08-12T08:53:59.774Z,97198.22
2022-08-12T08:56:27.256Z,97196.31
2022-08-12T08:58:53.845Z,97192.38
2022-08-12T09:01:23.497Z,97204.19
2022-08-12T09:05:09.663Z,97200.19
2022-08-12T09:06:41.946Z,97193.66
2022-08-12T09:09:20.623Z,97197.69
2022-08-12T09:14:52.675Z,97207.03
2022-08-12T09:17:21.294Z,97209.06
2022-08-12T09:22:37.699Z,97211.75
2022-08-12T09:25:07.334Z,97213.50
2022-08-12T09:28:04.274Z,97219.84
2022-08-12T09:30:41.698Z,97208.75
2022-08-12T09:33:18.456Z,97207.19
2022-08-12T09:35:46.931Z,97215.38
2022-08-12T09:38:33.715Z,97199.00
2022-08-12T09:42:33.915Z,97202.53
2022-08-12T09:44:38.279Z,97206.50
2022-08-12T09:46:54.945Z,97195.53
2022-08-12T09:49:25.141Z,97193.97
2022-08-12T09:51:55.462Z,97189.94
2022-08-12T09:54:33.773Z,97186.94
2022-08-12T09:58:46.872Z,97195.56
2022-08-12T10:00:16.904Z,97186.41
2022-08-12T10:03:01.088Z,97185.31
2022-08-12T10:06:20.021Z,97184.22
2022-08-12T10:08:17.277Z,97182.06
2022-08-12T10:11:05.848Z,97177.94
2022-08-12T10:13:43.461Z,97174.72
2022-08-12T10:16:21.911Z,97173.06
2022-08-12T10:18:54.312Z,97170.63
2022-08-12T10:21:35.489Z,97179.50
2022-08-12T10:24:11.864Z,97157.63
2022-08-12T10:27:00.002Z,97170.13
2022-08-12T10:30:40.712Z,97159.78
2022-08-12T10:32:43.862Z,97148.94
2022-08-12T10:35:15.341Z,97162.00
2022-08-12T10:38:33.966Z,97144.91
2022-08-12T10:40:33.205Z,97138.81
2022-08-12T10:43:19.848Z,97139.38
2022-08-12T10:45:49.362Z,97131.25
2022-08-12T10:48:21.979Z,97137.25
2022-08-12T10:50:58.381Z,97131.16
2022-08-12T10:53:45.129Z,97127.38
2022-08-12T10:56:17.224Z,97134.66
2022-08-12T10:58:47.658Z,97140.16
2022-08-12T11:01:48.920Z,97131.06
2022-08-12T11:04:26.118Z,97119.97
2022-08-12T11:07:07.996Z,97125.38
2022-08-12T11:09:56.571Z,97120.09
2022-08-12T11:12:55.297Z,97111.59
2022-08-12T11:15:20.878Z,97110.34
2022-08-12T11:17:53.790Z,97127.56
2022-08-12T11:20:24.373Z,97111.22
2022-08-12T11:22:59.627Z,97103.22
2022-08-12T11:25:42.410Z,97097.25
2022-08-12T11:28:14.346Z,97090.97
2022-08-12T11:30:41.282Z,97093.63
2022-08-12T11:33:11.773Z,97097.00
2022-08-12T11:35:42.969Z,97078.66
2022-08-12T11:38:12.840Z,97088.56
2022-08-12T11:40:42.639Z,97090.06
2022-08-12T11:43:18.864Z,97088.06
2022-08-12T11:45:47.538Z,97091.09
2022-08-12T11:48:15.666Z,97090.78
2022-08-12T11:50:45.924Z,97082.41
2022-08-12T11:53:58.557Z,97076.34
2022-08-12T11:55:59.231Z,97063.97
2022-08-12T11:59:04.611Z,97077.75
2022-08-12T12:02:02.813Z,97071.19
2022-08-12T12:04:00.210Z,97078.06
2022-08-12T12:06:28.791Z,97071.75
2022-08-12T12:08:55.406Z,97076.06
2022-08-12T12:11:23.011Z,97063.59
2022-08-12T12:14:06.893Z,97068.91
2022-08-12T12:16:39.731Z,97053.03
2022-08-12T12:19:08.812Z,97057.63
2022-08-12T12:21:48.481Z,97045.34
2022-08-12T12:24:21.167Z,97044.13
2022-08-12T12:27:00.065Z,97038.81
2022-08-12T12:30:14.110Z,97037.84
2022-08-12T12:32:28.916Z,97048.13
2022-08-12T12:35:14.592Z,97049.19
2022-08-12T12:38:03.558Z,97045.84
2022-08-12T12:40:34.373Z,97043.06
2022-08-12T12:43:05.188Z,97036.13
2022-08-12T12:45:35.574Z,97037.94
2022-08-12T12:48:13.264Z,97045.22
2022-08-12T12:51:12.244Z,97042.00
2022-08-12T12:54:07.593Z,97043.34
2022-08-12T12:56:34.286Z,97030.81
2022-08-12T12:59:03.874Z,97022.47
2022-08-12T13:01:32.933Z,97028.13
2022-08-12T13:04:03.119Z,97019.53
2022-08-12T13:06:31.558Z,97016.44
2022-08-12T13:09:02.746Z,97029.13
2022-08-12T13:11:40.785Z,97021.28
2022-08-12T13:14:28.129Z,97023.19
2022-08-12T13:16:57.648Z,97026.31
2022-08-12T13:19:38.824Z,97019.38
2022-08-12T13:22:23.438Z,97022.38
2022-08-12T13:24:55.714Z,97028.03
2022-08-12T13:27:34.632Z,97025.97
2022-08-12T13:30:11.030Z,97023.09
2022-08-12T13:32:40.496Z,97035.22
2022-08-12T13:35:19.871Z,97039.09
2022-08-12T13:37:56.997Z,97046.72
2022-08-12T13:40:25.236Z,97050.34
2022-08-12T13:42:58.004Z,97057.00
2022-08-12T13:45:30.096Z,97052.75
2022-08-12T13:48:02.329Z,97042.84
2022-08-12T13:50:40.060Z,97037.50
2022-08-12T13:53:24.132Z,97035.19
2022-08-12T13:56:01.551Z,97026.78
2022-08-12T13:58:30.719Z,97019.91
2022-08-12T14:00:58.620Z,97022.72
2022-08-12T14:03:28.033Z,97026.63
2022-08-12T14:05:58.019Z,97020.13
2022-08-12T14:08:26.064Z,97025.09
2022-08-12T14:11:02.268Z,97025.13
2022-08-12T14:14:03.951Z,97016.50
2022-08-12T14:16:48.494Z,97015.69
2022-08-12T14:19:10.707Z,97008.94
2022-08-12T14:22:01.048Z,97009.84
2022-08-12T14:24:35.599Z,97014.28
2022-08-12T14:27:08.816Z,97002.00
2022-08-12T14:29:55.673Z,96997.19
2022-08-12T14:32:23.632Z,96986.81
2022-08-12T14:34:51.759Z,96984.84
2022-08-12T14:37:57.245Z,96986.44
2022-08-12T14:40:06.510Z,97005.16
2022-08-12T14:42:33.147Z,96999.50
2022-08-12T14:45:01.744Z,96997.47
2022-08-12T14:47:35.426Z,96993.91
2022-08-12T14:50:41.097Z,96992.19
2022-08-12T14:56:58.927Z,96987.03
2022-08-12T14:58:28.235Z,96979.59
2022-08-12T15:01:17.145Z,96976.47
2022-08-12T15:03:56.954Z,96979.03
2022-08-12T15:06:43.595Z,96986.69
2022-08-12T15:09:14.150Z,96977.91
2022-08-12T15:11:48.759Z,96977.31
2022-08-12T15:14:25.585Z,96976.53
2022-08-12T15:16:53.173Z,96960.69
2022-08-12T15:20:14.329Z,96969.59
2022-08-12T15:22:38.685Z,96971.94
2022-08-12T15:24:53.691Z,96977.41
2022-08-12T15:27:22.406Z,96978.72
2022-08-12T15:29:58.711Z,96987.78
2022-08-12T15:32:32.485Z,96988.66
2022-08-12T15:35:03.049Z,96985.16
2022-08-12T15:38:10.716Z,96982.13
2022-08-12T15:40:30.275Z,96990.59
2022-08-12T15:42:59.732Z,96991.13
2022-08-12T15:45:32.166Z,96982.16
2022-08-12T15:48:16.397Z,96982.25
2022-08-12T15:50:46.875Z,96981.81
2022-08-12T15:53:42.010Z,96976.16
2022-08-12T15:56:12.641Z,96978.72
2022-08-12T15:58:41.794Z,96979.69
2022-08-12T16:01:15.429Z,96973.13
2022-08-12T16:04:00.379Z,96981.19
2022-08-12T16:06:50.973Z,96988.78
2022-08-12T16:09:21.531Z,96986.06
2022-08-12T16:11:48.785Z,96980.22
2022-08-12T16:14:16.095Z,96981.72
2022-08-12T16:16:43.102Z,96986.72
2022-08-12T16:20:01.816Z,96971.28
2022-08-12T16:22:05.103Z,96978.31
2022-08-12T16:24:34.980Z,96983.47
2022-08-12T16:27:06.530Z,96977.78
2022-08-12T16:29:53.252Z,96979.47
2022-08-12T16:32:24.197Z,96985.81
2022-08-12T16:34:54.919Z,96985.34
2022-08-12T16:37:32.166Z,96986.75
2022-08-12T16:40:06.141Z,96986.47
2022-08-12T16:42:39.412Z,96985.44
2022-08-12T16:45:15.380Z,96990.34
2022-08-12T16:47:58.454Z,96986.56
2022-08-12T16:50:30.610Z,96990.34
2022-08-12T16:52:57.520Z,96991.47
2022-08-12T16:55:26.660Z,96985.78
2022-08-12T16:57:54.054Z,97000.59
2022-08-12T17:00:24.123Z,96997.63
2022-08-12T17:02:57.274Z,96992.25
2022-08-12T17:05:31.447Z,96996.81
2022-08-12T17:08:00.168Z,97000.06
2022-08-12T17:10:36.361Z,96994.91
2022-08-12T17:13:09.930Z,96989.56
2022-08-12T17:15:57.033Z,96980.16
2022-08-12T17:18:42.598Z,96992.97
2022-08-12T17:21:19.573Z,96995.72
2022-08-12T17:23:53.603Z,96998.56
2022-08-12T17:26:22.400Z,96986.56
2022-08-12T17:28:56.618Z,96999.66
2022-08-12T17:32:00.955Z,96989.19
2022-08-12T17:34:29.918Z,96998.31
2022-08-12T17:36:56.825Z,96997.22
2022-08-12T17:40:06.513Z,96999.09
2022-08-12T17:42:32.890Z,96999.41
2022-08-12T17:45:01.901Z,96999.38
2022-08-12T17:47:44.418Z,97001.50
2022-08-12T17:50:13.000Z,97008.75
2022-08-12T17:52:40.327Z,97002.09
2022-08-12T17:55:39.864Z,97004.66
2022-08-12T17:58:00.253Z,97006.75
2022-08-12T18:00:28.583Z,97009.44
2022-08-12T18:02:59.804Z,97003.44
2022-08-12T18:05:29.533Z,97007.78
2022-08-12T18:08:15.966Z,97012.09
2022-08-12T18:11:05.333Z,97016.81
2022-08-12T18:13:41.060Z,97022.69
2022-08-12T18:16:13.272Z,97022.13
2022-08-12T18:18:43.529Z,97017.44
2022-08-12T18:21:13.933Z,97015.28
2022-08-12T18:23:50.791Z,97014.88
2022-08-12T18:26:23.043Z,97023.34
2022-08-12T18:28:54.578Z,97029.78
2022-08-12T18:31:44.393Z,97032.50
2022-08-12T18:34:19.182Z,97039.69
2022-08-12T18:36:50.365Z,97040.38
2022-08-12T18:39:19.684Z,97026.81
2022-08-12T18:41:47.259Z,97038.22
2022-08-12T18:44:14.181Z,97032.75
2022-08-12T18:46:47.302Z,97036.56
2022-08-12T18:49:28.413Z,97031.59
2022-08-12T18:52:04.497Z,97039.28
2022-08-12T18:54:54.071Z,97039.91
2022-08-12T18:57:46.012Z,97036.44
2022-08-12T19:00:21.443Z,97037.75
2022-08-12T19:02:50.636Z,97043.94
2022-08-12T19:05:17.820Z,97051.31
2022-08-12T19:08:01.177Z,97044.75
2022-08-12T19:10:30.438Z,97053.72
2022-08-12T19:13:23.235Z,97056.88
2022-08-12T19:15:53.473Z,97061.56
2022-08-12T19:18:22.055Z,97066.16
2022-08-12T19:20:50.441Z,97058.88
2022-08-12T19:23:20.793Z,97065.03
2022-08-12T19:25:59.653Z,97064.53
2022-08-12T19:28:34.748Z,97066.31
2022-08-12T19:31:56.472Z,97069.81
2022-08-12T19:37:38.741Z,97063.25
2022-08-12T19:40:20.497Z,97064.75
2022-08-12T19:43:13.169Z,97066.44
2022-08-12T19:45:49.598Z,97067.66
2022-08-12T19:48:18.944Z,97067.19
2022-08-12T19:50:52.392Z,97068.34
2022-08-12T19:53:22.602Z,97069.41
2022-08-12T19:55:54.951Z,97076.16
2022-08-12T19:58:23.166Z,97069.66
2022-08-12T20:00:53.457Z,97074.72
2022-08-12T20:03:37.912Z,97071.63
2022-08-12T20:06:14.106Z,97071.94
2022-08-12T20:08:53.812Z,97070.66
2022-08-12T20:12:14.635Z,97074.06
2022-08-12T20:14:18.107Z,97070.13
2022-08-12T20:16:57.765Z,97075.03
2022-08-12T20:20:02.717Z,97069.66
2022-08-12T20:22:29.386Z,97071.75
2022-08-12T20:25:01.110Z,97067.56
2022-08-12T20:28:03.242Z,97078.47
2022-08-12T20:30:18.190Z,97067.56
2022-08-12T20:32:56.054Z,97068.94
2022-08-12T20:35:25.067Z,97074.63
2022-08-12T20:38:26.749Z,97066.28
2022-08-12T20:40:55.699Z,97068.69
2022-08-12T20:43:24.173Z,97063.69
2022-08-12T20:45:58.116Z,97066.13
2022-08-12T20:48:28.732Z,97062.28
2022-08-12T20:50:56.726Z,97069.22
2022-08-12T20:53:28.957Z,97060.50
2022-08-12T20:56:19.581Z,97061.34
2022-08-12T20:58:46.415Z,97062.97
2022-08-12T21:01:15.235Z,97066.56
2022-08-12T21:04:04.744Z,97065.78
2022-08-12T21:06:50.234Z,97069.22
2022-08-12T21:09:22.517Z,97068.47
2022-08-12T21:11:55.779Z,97062.56
2022-08-12T21:14:53.084Z,97056.06
2022-08-12T21:17:15.921Z,97063.66
2022-08-12T21:19:52.895Z,97062.69
2022-08-12T21:22:24.699Z,97071.50
2022-08-12T21:24:52.921Z,97065.72
2022-08-12T21:27:20.006Z,97065.94
2022-08-12T21:29:50.013Z,97071.88
2022-08-12T21:32:37.415Z,97071.19
2022-08-12T21:35:07.908Z,97071.44
2022-08-12T21:37:37.441Z,97069.25
2022-08-12T21:40:13.585Z,97073.88
2022-08-12T21:42:42.226Z,97070.13
2022-08-12T21:45:45.367Z,97076.69
2022-08-12T21:47:59.459Z,97076.31
2022-08-12T21:50:29.458Z,97079.34
2022-08-12T21:52:57.706Z,97085.28
2022-08-12T21:55:28.867Z,97082.06
2022-08-12T21:58:10.775Z,97085.47
2022-08-12T22:00:39.809Z,97089.81
2022-08-12T22:04:04.134Z,97091.06
2022-08-12T22:06:31.829Z,97092.00
2022-08-12T22:09:09.067Z,97084.31
2022-08-12T22:11:44.006Z,97087.19
2022-08-12T22:14:21.627Z,97085.78
2022-08-12T22:16:51.027Z,97086.41
2022-08-12T22:19:19.610Z,97088.69
2022-08-12T22:21:54.782Z,97081.94
2022-08-12T22:24:27.076Z,97087.25
2022-08-12T22:26:56.356Z,97082.16
2022-08-12T22:29:42.275Z,97091.41
2022-08-12T22:32:11.291Z,97086.25
2022-08-12T22:34:39.339Z,97090.38
2022-08-12T22:37:11.354Z,97088.19
2022-08-12T22:39:46.190Z,97087.63
2022-08-12T22:42:34.169Z,97082.47
2022-08-12T22:45:23.422Z,97087.88
2022-08-12T22:47:54.956Z,97084.25
2022-08-12T22:50:29.603Z,97090.84
2022-08-12T22:53:15.673Z,97086.78
2022-08-12T22:56:05.573Z,97082.28
2022-08-12T22:58:33.590Z,97073.25
2022-08-12T23:01:01.967Z,97083.88
2022-08-12T23:03:48.239Z,97082.31
2022-08-12T23:06:19.567Z,97086.34
2022-08-12T23:08:46.460Z,97086.00
2022-08-12T23:11:16.076Z,97091.66
2022-08-12T23:13:55.426Z,97083.53
2022-08-12T23:16:31.695Z,97083.72
2022-08-12T23:19:18.050Z,97076.78
2022-08-12T23:22:03.937Z,97079.06
2022-08-12T23:24:55.564Z,97071.09
2022-08-12T23:27:52.183Z,97072.09
2022-08-12T23:30:31.095Z,97071.72
2022-08-12T23:33:00.617Z,97074.34
2022-08-12T23:35:46.136Z,97063.16
2022-08-12T23:38:30.720Z,97070.28
2022-08-12T23:41:00.796Z,97074.78
2022-08-12T23:43:39.868Z,97057.47
2022-08-12T23:46:19.201Z,97064.81
2022-08-12T23:48:47.909Z,97066.84
2022-08-12T23:51:22.522Z,97059.09
2022-08-12T23:54:02.535Z,97047.28
2022-08-12T23:56:33.972Z,97041.97
2022-08-12T23:59:03.365Z,97041.19
